Time;durP1;ratioP1;P1;durP2;ratioP2;P2;SDS_P1;SDS_P2;PMS_P1;PMS_P2;Temp;Humidity;BMP_temperature;BMP_pressure;BME280_temperature;BME280_humidity;BME280_pressure;Samples;Min_cycle;Max_cycle;Signal;HPM_P1;HPM_P2
2021/12/13 00:02:48;;;;;;;7.82;6.43;;;;;;;14.60;58.27;100995.47;144994;563;5002;-85
2021/12/13 00:05:46;;;;;;;8.77;5.75;;;;;;;14.59;58.17;100998.94;144994;632;5004;-85
2021/12/13 00:08:19;;;;;;;8.52;5.45;;;;;;;14.59;58.29;100999.81;144994;690;5002;-83
2021/12/13 00:10:53;;;;;;;8.35;4.93;;;;;;;14.61;58.29;100999.87;144994;625;5002;-86
2021/12/13 00:13:29;;;;;;;6.70;4.50;;;;;;;14.63;58.28;101004.25;144994;594;5002;-86
2021/12/13 00:16:04;;;;;;;5.95;4.75;;;;;;;14.67;58.42;100993.00;144994;628;5002;-86
2021/12/13 00:18:41;;;;;;;6.25;3.75;;;;;;;14.69;58.52;100999.13;144994;564;5002;-85
2021/12/13 00:21:26;;;;;;;4.82;3.47;;;;;;;14.80;58.71;101011.53;144994;607;5002;-87
2021/12/13 00:23:57;;;;;;;5.72;3.20;;;;;;;14.87;58.17;101006.44;144994;596;5002;-86
2021/12/13 00:26:31;;;;;;;5.45;3.15;;;;;;;14.90;58.14;101005.59;144994;564;5002;-83
2021/12/13 00:28:58;;;;;;;5.90;3.72;;;;;;;14.89;58.38;101003.84;144994;716;5002;-85
2021/12/13 00:32:02;;;;;;;5.45;3.70;;;;;;;14.83;58.03;101007.22;144994;570;5002;-85
2021/12/13 00:34:46;;;;;;;6.03;3.78;;;;;;;14.78;58.24;101006.25;144994;657;5002;-85
2021/12/13 00:37:20;;;;;;;5.50;3.87;;;;;;;14.75;58.45;101011.44;144994;623;5002;-84
2021/12/13 00:40:15;;;;;;;7.22;4.37;;;;;;;14.69;58.14;101009.59;144994;569;5002;-85
2021/12/13 00:42:56;;;;;;;5.62;3.92;;;;;;;14.69;58.44;101011.34;144994;590;5002;-85
2021/12/13 00:45:27;;;;;;;6.15;4.90;;;;;;;14.62;58.67;101019.91;144994;639;5002;-86
2021/12/13 00:47:53;;;;;;;8.07;4.93;;;;;;;14.42;61.79;101020.37;144993;648;5002;-86
2021/12/13 00:50:25;;;;;;;6.07;5.47;;;;;;;14.31;60.56;101019.31;144994;638;5002;-85
2021/12/13 00:52:54;;;;;;;7.68;5.60;;;;;;;14.34;60.09;101008.91;144994;569;5002;-85
2021/12/13 00:55:28;;;;;;;7.22;4.95;;;;;;;13.91;64.52;101024.59;144994;636;5003;-84
2021/12/13 00:58:19;;;;;;;8.23;5.75;;;;;;;13.96;61.66;101017.75;144994;612;5002;-84
2021/12/13 01:01:06;;;;;;;6.90;5.50;;;;;;;13.99;61.52;101022.16;144994;594;5002;-85
2021/12/13 01:03:41;;;;;;;7.97;5.65;;;;;;;14.08;61.03;101027.56;144994;564;5003;-83
2021/12/13 01:06:44;;;;;;;8.50;5.78;;;;;;;14.17;61.18;101023.37;144994;697;5002;-84
2021/12/13 01:10:03;;;;;;;4.90;4.12;;;;;;;14.17;62.58;101034.69;144994;596;5002;-83
2021/12/13 01:12:30;;;;;;;4.97;4.25;;;;;;;14.24;60.77;101047.03;144994;589;5002;-84
2021/12/13 01:15:32;;;;;;;8.38;4.10;;;;;;;13.77;64.34;101052.12;144994;594;5002;-84
2021/12/13 01:18:23;;;;;;;6.62;4.28;;;;;;;13.84;62.37;101047.91;144994;603;5002;-85
2021/12/13 01:21:31;;;;;;;4.97;3.70;;;;;;;13.72;63.65;101048.53;144994;621;5002;-83
2021/12/13 01:24:07;;;;;;;6.03;3.45;;;;;;;13.75;62.56;101046.00;144993;691;5002;-85
2021/12/13 01:26:46;;;;;;;4.93;3.72;;;;;;;13.61;63.09;101049.16;144994;619;5002;-86
2021/12/13 01:29:27;;;;;;;6.05;4.15;;;;;;;13.30;64.32;101050.19;144994;587;5002;-85
2021/12/13 01:31:57;;;;;;;5.85;3.80;;;;;;;13.16;64.83;101052.44;144994;594;5002;-84
2021/12/13 01:34:26;;;;;;;3.67;3.33;;;;;;;13.10;64.48;101043.59;144994;625;5002;-85
2021/12/13 01:37:20;;;;;;;2.45;2.25;;;;;;;13.02;64.81;101039.06;144994;697;5002;-85
2021/12/13 01:39:50;;;;;;;2.62;2.20;;;;;;;13.13;63.71;101033.25;144994;592;5002;-84
2021/12/13 01:42:23;;;;;;;1.62;1.52;;;;;;;13.12;63.83;101028.88;144994;639;5002;-84
2021/12/13 01:44:53;;;;;;;2.20;1.73;;;;;;;13.00;64.59;101019.91;144994;813;5002;-85
2021/12/13 01:47:26;;;;;;;2.08;1.73;;;;;;;13.15;63.40;101019.38;144994;563;5002;-86
2021/12/13 01:50:16;;;;;;;2.75;1.42;;;;;;;13.29;62.83;101031.88;144994;654;5002;-84
2021/12/13 01:52:45;;;;;;;3.17;2.00;;;;;;;13.37;62.56;101026.03;144994;598;5004;-85
2021/12/13 01:55:23;;;;;;;2.42;1.60;;;;;;;13.43;62.33;101023.56;144994;750;5005;-83
2021/12/13 01:57:56;;;;;;;2.95;1.67;;;;;;;13.36;63.35;101021.69;144994;624;5004;-84
2021/12/13 02:01:08;;;;;;;2.20;1.55;;;;;;;13.52;62.22;101017.69;144994;604;5004;-84
2021/12/13 02:03:23;;;;;;;4.53;1.80;;;;;;;13.59;61.79;101022.19;144994;624;5002;-84
2021/12/13 02:05:50;;;;;;;3.80;1.80;;;;;;;13.67;61.65;101021.47;144994;588;5002;-84
2021/12/13 02:08:21;;;;;;;2.92;1.80;;;;;;;13.66;62.42;101024.94;144994;638;5002;-84
2021/12/13 02:10:56;;;;;;;2.40;1.65;;;;;;;13.76;61.68;101024.28;144994;583;5002;-85
2021/12/13 02:13:28;;;;;;;1.85;1.50;;;;;;;13.77;61.65;101031.25;144994;620;5002;-84
2021/12/13 02:18:48;;;;;;;2.00;1.30;;;;;;;13.86;60.71;101021.03;144994;600;5004;-84
2021/12/13 02:21:34;;;;;;;2.37;1.50;;;;;;;13.64;61.51;101024.91;144994;584;5004;-84
2021/12/13 02:24:11;;;;;;;1.65;1.40;;;;;;;13.33;62.39;101028.53;144994;610;5004;-85
2021/12/13 02:26:44;;;;;;;3.53;1.70;;;;;;;13.12;62.96;101023.66;144994;626;5004;-84
2021/12/13 02:29:21;;;;;;;2.35;1.65;;;;;;;13.30;62.57;101039.75;144994;741;5004;-85
2021/12/13 02:31:50;;;;;;;2.17;1.70;;;;;;;13.19;62.62;101028.19;144994;583;5004;-83
2021/12/13 02:34:18;;;;;;;2.00;1.62;;;;;;;13.13;62.71;101039.31;144993;562;5004;-85
2021/12/13 02:36:52;;;;;;;2.90;2.10;;;;;;;13.07;64.01;101033.97;144994;583;5002;-84
2021/12/13 02:39:25;;;;;;;2.90;2.00;;;;;;;12.74;66.08;101034.88;144994;573;4566;-85
2021/12/13 02:41:52;;;;;;;1.95;1.73;;;;;;;12.66;65.40;101042.50;144994;645;4572;-85
2021/12/13 02:44:49;;;;;;;2.05;1.65;;;;;;;12.63;64.68;101042.44;144992;627;6002;-83
2021/12/13 02:47:25;;;;;;;2.10;1.25;;;;;;;12.58;64.35;101035.31;144992;567;6004;-84
2021/12/13 02:49:58;;;;;;;1.20;0.85;;;;;;;12.37;62.69;101046.03;144992;614;6004;-84
2021/12/13 02:52:41;;;;;;;1.30;0.68;;;;;;;12.57;63.71;101033.56;144992;561;6004;-84
2021/12/13 02:55:18;;;;;;;0.70;0.70;;;;;;;12.61;63.36;101041.47;144992;579;6005;-83
2021/12/13 02:57:49;;;;;;;1.67;0.50;;;;;;;12.32;62.59;101051.13;144992;625;6004;-83
2021/12/13 03:00:38;;;;;;;0.70;0.65;;;;;;;12.49;63.12;101055.06;144992;573;6004;-83
2021/12/13 03:03:11;;;;;;;0.85;0.45;;;;;;;12.20;61.76;101054.28;144992;584;6004;-84
2021/12/13 03:05:41;;;;;;;0.93;0.60;;;;;;;12.28;62.26;101060.56;144992;576;6004;-85
2021/12/13 03:08:16;;;;;;;0.88;0.75;;;;;;;12.26;63.00;101054.41;144992;622;6004;-84
2021/12/13 03:10:48;;;;;;;1.15;0.65;;;;;;;12.16;62.89;101055.88;144992;590;6004;-84
2021/12/13 03:13:16;;;;;;;2.08;0.60;;;;;;;12.16;63.06;101050.66;144992;643;6004;-84
2021/12/13 03:15:53;;;;;;;1.83;0.70;;;;;;;12.30;62.82;101055.41;144992;597;6004;-83
2021/12/13 03:18:25;;;;;;;1.20;0.77;;;;;;;12.51;62.12;101047.28;144992;578;6004;-85
2021/12/13 03:21:44;;;;;;;0.68;0.68;;;;;;;12.70;61.40;101057.34;144992;564;6004;-84
2021/12/13 03:24:48;;;;;;;2.55;1.00;;;;;;;12.83;61.09;101045.53;144992;594;6002;-84
2021/12/13 03:27:30;;;;;;;1.00;0.95;;;;;;;12.92;60.94;101052.72;144992;603;6004;-83
2021/12/13 03:30:06;;;;;;;1.48;0.80;;;;;;;12.98;60.60;101060.69;144992;583;6004;-84
2021/12/13 03:33:08;;;;;;;1.42;0.90;;;;;;;13.04;60.53;101065.16;144992;616;6004;-85
2021/12/13 03:35:55;;;;;;;1.30;0.70;;;;;;;12.93;60.80;101074.44;144992;569;6002;-86
2021/12/13 03:38:35;;;;;;;1.15;0.60;;;;;;;13.03;60.50;101063.41;144992;579;6002;-85
2021/12/13 03:41:06;;;;;;;1.27;0.70;;;;;;;12.99;60.82;101085.88;144992;624;6002;-85
2021/12/13 03:43:48;;;;;;;1.00;0.60;;;;;;;12.90;60.81;101096.09;144992;591;6002;-84
2021/12/13 03:46:17;;;;;;;2.10;0.85;;;;;;;12.93;60.75;101090.06;144992;586;6002;-84
2021/12/13 03:48:48;;;;;;;1.10;1.00;;;;;;;12.85;60.82;101089.84;144992;619;6002;-84
2021/12/13 03:51:18;;;;;;;0.82;0.73;;;;;;;12.73;61.25;101095.63;144992;574;6002;-84
2021/12/13 03:53:49;;;;;;;1.17;0.80;;;;;;;12.76;61.05;101087.00;144992;610;6002;-85
2021/12/13 03:56:28;;;;;;;1.08;0.70;;;;;;;12.79;60.64;101089.69;144992;583;6002;-83
2021/12/13 03:59:03;;;;;;;1.25;0.95;;;;;;;12.77;60.78;101094.87;144992;578;6002;-84
2021/12/13 04:01:43;;;;;;;1.00;0.68;;;;;;;12.21;61.83;101094.19;144992;618;6002;-84
2021/12/13 04:04:21;;;;;;;1.20;0.62;;;;;;;12.57;61.17;101102.16;144992;639;6002;-83
2021/12/13 04:06:53;;;;;;;2.55;0.95;;;;;;;12.63;60.86;101115.34;144992;603;6002;-84
2021/12/13 04:09:23;;;;;;;1.23;0.90;;;;;;;12.75;60.54;101117.41;144992;572;6002;-84
2021/12/13 04:11:53;;;;;;;1.20;1.00;;;;;;;12.84;60.27;101119.38;144992;591;6002;-84
2021/12/13 04:14:26;;;;;;;1.05;0.60;;;;;;;12.87;59.89;101117.72;144992;625;6002;-84
2021/12/13 04:17:20;;;;;;;1.00;0.62;;;;;;;12.86;59.84;101123.78;144992;581;6002;-84
2021/12/13 04:19:58;;;;;;;0.95;0.50;;;;;;;12.86;59.60;101126.38;144992;634;6002;-85
2021/12/13 04:22:31;;;;;;;0.50;0.40;;;;;;;12.81;59.48;101137.53;144992;600;6002;-84
2021/12/13 04:25:03;;;;;;;0.88;0.57;;;;;;;12.70;59.41;101145.03;144992;598;6002;-85
2021/12/13 04:27:55;;;;;;;0.73;0.40;;;;;;;12.38;58.37;101144.12;144992;566;6002;-85
2021/12/13 04:30:32;;;;;;;1.90;0.30;;;;;;;12.36;59.49;101143.19;144992;577;6004;-85
2021/12/13 04:33:05;;;;;;;0.30;0.20;;;;;;;11.97;57.42;101152.47;144992;587;6004;-84
2021/12/13 04:35:33;;;;;;;0.20;0.20;;;;;;;11.68;57.55;101149.78;144992;596;6004;-84
2021/12/13 04:38:03;;;;;;;0.55;0.30;;;;;;;11.75;59.95;101158.66;144992;587;6004;-85
2021/12/13 04:40:35;;;;;;;0.57;0.30;;;;;;;11.58;59.77;101159.00;144992;618;6004;-84
2021/12/13 04:43:15;;;;;;;0.50;0.30;;;;;;;11.28;59.27;101160.56;144992;613;6004;-86
2021/12/13 04:45:57;;;;;;;0.50;0.30;;;;;;;10.64;61.09;101165.28;144992;569;6004;-84
2021/12/13 04:48:30;;;;;;;0.30;0.25;;;;;;;10.47;61.42;101170.75;144992;659;6004;-85
2021/12/13 04:51:11;;;;;;;1.58;0.45;;;;;;;10.39;62.42;101187.75;144992;604;6004;-86
2021/12/13 04:53:42;;;;;;;0.70;0.40;;;;;;;10.24;62.59;101189.69;144992;601;6004;-83
2021/12/13 04:56:13;;;;;;;0.50;0.40;;;;;;;10.47;62.84;101191.50;144992;604;6004;-83
2021/12/13 04:58:43;;;;;;;1.05;0.37;;;;;;;10.56;62.36;101190.06;144992;569;6004;-82
2021/12/13 05:01:13;;;;;;;1.17;0.52;;;;;;;10.36;63.06;101184.16;144992;579;6004;-85
2021/12/13 05:03:42;;;;;;;0.55;0.50;;;;;;;10.24;63.38;101185.38;144992;624;6004;-86
2021/12/13 05:06:14;;;;;;;1.27;0.30;;;;;;;10.20;63.44;101186.13;144992;575;6004;-85
2021/12/13 05:08:44;;;;;;;1.20;0.50;;;;;;;10.23;64.05;101188.81;144992;577;6004;-84
2021/12/13 05:11:15;;;;;;;1.45;0.50;;;;;;;10.44;63.42;101185.31;144992;648;6004;-85
2021/12/13 05:13:49;;;;;;;0.55;0.40;;;;;;;10.39;63.14;101189.44;144992;679;6004;-84
2021/12/13 05:16:43;;;;;;;2.17;0.55;;;;;;;10.31;62.82;101189.13;144992;571;6004;-86
2021/12/13 05:19:13;;;;;;;0.93;0.50;;;;;;;10.78;61.98;101199.53;144992;578;6004;-83
2021/12/13 05:21:50;;;;;;;0.70;0.35;;;;;;;10.59;62.40;101200.56;144992;561;6004;-84
2021/12/13 05:24:35;;;;;;;1.40;0.50;;;;;;;10.79;61.65;101204.78;144992;581;6004;-86
2021/12/13 05:27:10;;;;;;;0.90;0.47;;;;;;;10.81;61.07;101200.53;144992;596;6004;-85
2021/12/13 05:29:46;;;;;;;3.62;1.42;;;;;;;11.13;59.68;101193.00;144992;637;6004;-85
2021/12/13 05:32:24;;;;;;;0.57;0.40;;;;;;;11.47;59.74;101186.37;144992;597;6004;-84
2021/12/13 05:35:04;;;;;;;1.52;0.50;;;;;;;11.49;60.18;101176.03;144991;597;6000;-84
2021/12/13 05:37:48;;;;;;;2.33;0.50;;;;;;;11.31;59.16;101181.47;144992;564;6002;-88
2021/12/13 05:40:22;;;;;;;0.60;0.40;;;;;;;11.63;59.53;101187.78;144991;631;6002;-83
2021/12/13 05:42:56;;;;;;;0.80;0.50;;;;;;;10.86;59.36;101193.81;144992;602;6002;-85
2021/12/13 05:45:53;;;;;;;1.15;0.40;;;;;;;11.05;59.35;101194.44;144992;594;6002;-85
2021/12/13 05:48:43;;;;;;;2.87;0.70;;;;;;;11.23;59.86;101197.72;144992;583;6004;-85
2021/12/13 05:51:43;;;;;;;1.08;0.85;;;;;;;11.20;59.36;101200.19;144991;591;6000;-82
2021/12/13 05:54:27;;;;;;;3.33;1.30;;;;;;;11.50;59.04;101193.37;144992;629;6004;-82
2021/12/13 05:57:04;;;;;;;1.67;0.90;;;;;;;11.53;58.88;101191.78;144992;613;6004;-86
2021/12/13 05:59:38;;;;;;;3.03;0.93;;;;;;;11.44;59.07;101204.47;144992;588;6006;-87
2021/12/13 06:02:37;;;;;;;2.10;1.15;;;;;;;11.67;58.33;101212.16;144992;567;6004;-87
2021/12/13 06:05:18;;;;;;;8.35;1.15;;;;;;;11.71;58.74;101220.09;144992;569;6002;-86
2021/12/13 06:07:54;;;;;;;1.62;0.90;;;;;;;11.86;58.35;101227.53;144992;647;6002;-85
2021/12/13 06:10:25;;;;;;;1.40;0.90;;;;;;;11.89;58.12;101231.97;144992;633;6002;-85
2021/12/13 06:13:00;;;;;;;1.95;1.00;;;;;;;11.86;58.81;101232.72;144992;570;6002;-86
2021/12/13 06:15:30;;;;;;;;;;;;;;;11.89;58.99;101235.44;144997;916;6002;-87
2021/12/13 06:18:24;;;;;;;2.80;1.00;;;;;;;11.92;59.50;101256.38;144997;601;6002;-86
2021/12/13 06:21:45;;;;;;;3.17;1.33;;;;;;;11.99;59.28;101270.47;144992;585;6004;-86
2021/12/13 06:24:12;;;;;;;2.97;1.50;;;;;;;11.62;61.02;101274.41;144992;593;6002;-88
2021/12/13 06:26:39;;;;;;;3.00;1.98;;;;;;;11.78;60.25;101275.81;144992;601;6002;-86
2021/12/13 06:29:08;;;;;;;5.70;2.10;;;;;;;11.46;62.84;101290.31;144992;644;6002;-87
2021/12/13 06:31:45;;;;;;;3.65;2.72;;;;;;;11.72;60.43;101293.81;144992;572;6002;-87
2021/12/13 06:34:16;;;;;;;4.75;2.80;;;;;;;11.82;60.50;101287.19;144992;587;6002;-86
2021/12/13 06:36:46;;;;;;;4.55;2.67;;;;;;;11.90;60.19;101291.84;144992;572;6002;-88
2021/12/13 06:39:32;;;;;;;5.87;2.47;;;;;;;11.30;62.86;101299.28;144992;604;6002;-86
2021/12/13 06:42:05;;;;;;;5.25;2.20;;;;;;;11.19;62.96;101301.50;144992;619;6002;-86
2021/12/13 06:44:44;;;;;;;3.30;1.83;;;;;;;10.98;64.89;101309.38;144992;569;6002;-87
2021/12/13 06:47:17;;;;;;;2.95;1.30;;;;;;;10.81;64.52;101306.12;144992;587;6002;-86
2021/12/13 06:49:52;;;;;;;2.10;1.37;;;;;;;10.53;65.59;101303.38;144992;638;6002;-86
2021/12/13 06:52:26;;;;;;;2.22;1.37;;;;;;;10.73;64.42;101303.25;144992;573;6002;-85
2021/12/13 06:55:03;;;;;;;2.75;1.00;;;;;;;10.49;64.59;101308.37;144992;571;6002;-87
2021/12/13 06:58:00;;;;;;;1.65;1.00;;;;;;;10.16;63.99;101311.34;144992;647;6002;-86
2021/12/13 07:00:32;;;;;;;1.52;1.00;;;;;;;10.17;62.29;101319.19;144992;607;6004;-87
2021/12/13 07:03:02;;;;;;;1.35;0.60;;;;;;;10.10;62.11;101318.88;144992;599;6004;-85
2021/12/13 07:05:56;;;;;;;1.20;0.90;;;;;;;10.11;61.98;101323.25;144992;622;6004;-87
2021/12/13 07:08:38;;;;;;;2.12;1.10;;;;;;;10.15;62.45;101325.16;144992;597;6002;-86
2021/12/13 07:11:13;;;;;;;1.02;0.80;;;;;;;10.05;62.75;101336.84;144992;621;6002;-89
2021/12/13 07:13:50;;;;;;;1.15;0.80;;;;;;;10.06;62.56;101340.34;144992;611;6002;-88
2021/12/13 07:16:29;;;;;;;0.80;0.77;;;;;;;10.05;62.51;101344.63;144992;600;6002;-87
2021/12/13 07:19:05;;;;;;;2.72;0.90;;;;;;;9.96;62.37;101344.25;144992;585;6002;-88
2021/12/13 07:21:44;;;;;;;2.60;1.58;;;;;;;10.07;62.31;101348.19;144992;564;6002;-86
2021/12/13 07:24:13;;;;;;;1.70;1.10;;;;;;;9.93;62.66;101352.78;144992;570;6002;-87
2021/12/13 07:26:52;;;;;;;2.70;1.00;;;;;;;10.13;61.86;101348.44;144992;570;6002;-86
2021/12/13 07:29:44;;;;;;;2.67;0.90;;;;;;;10.18;61.66;101351.22;144992;553;6002;-85
2021/12/13 07:32:39;;;;;;;1.75;1.00;;;;;;;10.09;61.81;101351.72;144992;575;6004;-86
2021/12/13 07:35:45;;;;;;;4.12;1.20;;;;;;;10.14;62.17;101352.78;144992;586;6004;-88
2021/12/13 07:38:25;;;;;;;4.62;1.48;;;;;;;10.36;61.79;101356.31;144992;598;6002;-88
2021/12/13 07:41:12;;;;;;;10.60;1.77;;;;;;;10.47;61.36;101356.75;144992;597;6002;-88
2021/12/13 07:43:44;;;;;;;1.62;1.35;;;;;;;10.89;60.84;101352.34;144992;587;6002;-85
2021/12/13 07:46:27;;;;;;;2.37;1.23;;;;;;;11.10;60.30;101358.31;144992;565;6002;-85
2021/12/13 07:49:00;;;;;;;1.65;1.48;;;;;;;10.98;60.98;101361.34;144992;570;6002;-87
2021/12/13 07:51:46;;;;;;;2.58;1.50;;;;;;;10.89;61.09;101360.13;144991;608;6002;-85
2021/12/13 07:54:16;;;;;;;1.42;1.33;;;;;;;10.69;60.95;101361.09;144992;587;6002;-87
2021/12/13 07:57:03;;;;;;;1.60;1.30;;;;;;;10.68;61.04;101360.19;144992;635;6002;-88
2021/12/13 07:59:36;;;;;;;3.45;1.40;;;;;;;10.84;61.04;101361.66;144992;599;6004;-86
2021/12/13 08:02:17;;;;;;;3.12;1.90;;;;;;;11.03;60.37;101365.87;144992;567;6004;-87
2021/12/13 08:04:56;;;;;;;4.78;2.40;;;;;;;10.88;59.08;101366.19;144992;650;6004;-87
2021/12/13 08:07:31;;;;;;;4.78;3.17;;;;;;;10.94;59.73;101362.91;144992;572;6004;-88
2021/12/13 08:10:08;;;;;;;8.27;5.82;;;;;;;11.05;60.33;101366.81;144992;621;6004;-86
2021/12/13 08:12:51;;;;;;;4.97;3.78;;;;;;;11.25;60.36;101372.75;144992;662;6013;-87
2021/12/13 08:15:48;;;;;;;5.25;3.85;;;;;;;11.44;59.81;101378.66;144992;638;6004;-85
2021/12/13 08:18:33;;;;;;;7.35;5.82;;;;;;;11.38;60.35;101383.63;144992;573;6002;-89
2021/12/13 08:21:28;;;;;;;13.10;8.75;;;;;;;11.40;59.88;101382.84;144992;639;6002;-83
2021/12/13 08:24:00;;;;;;;8.40;4.62;;;;;;;11.35;59.18;101386.97;144992;581;6004;-84
2021/12/13 08:26:40;;;;;;;3.50;2.83;;;;;;;11.47;59.51;101386.56;144992;617;6004;-84
2021/12/13 08:29:19;;;;;;;3.72;2.70;;;;;;;11.30;58.91;101388.53;144992;587;6004;-84
2021/12/13 08:31:50;;;;;;;4.05;2.17;;;;;;;11.19;58.74;101390.72;144992;647;6004;-84
2021/12/13 08:34:37;;;;;;;3.67;2.47;;;;;;;11.28;59.67;101387.59;144992;665;6004;-86
2021/12/13 08:37:32;;;;;;;6.00;3.00;;;;;;;11.19;58.81;101388.12;144992;594;6005;-85
2021/12/13 08:40:19;;;;;;;3.85;2.45;;;;;;;11.14;59.24;101389.66;144992;614;6004;-84
2021/12/13 08:42:52;;;;;;;3.78;1.80;;;;;;;10.97;57.64;101385.53;144992;646;6004;-86
2021/12/13 08:45:35;;;;;;;3.12;1.87;;;;;;;11.05;58.46;101376.31;144992;580;6004;-86
2021/12/13 08:48:12;;;;;;;2.05;1.58;;;;;;;10.98;58.22;101376.94;144992;572;6004;-83
2021/12/13 08:50:52;;;;;;;7.37;3.60;;;;;;;10.96;57.36;101378.56;144992;617;6004;-85
2021/12/13 08:53:28;;;;;;;2.60;1.40;;;;;;;10.86;57.23;101378.22;144992;592;6004;-84
2021/12/13 08:56:05;;;;;;;3.05;1.60;;;;;;;10.99;57.66;101378.69;144992;562;6004;-84
2021/12/13 08:58:34;;;;;;;4.72;2.30;;;;;;;10.95;58.44;101384.59;144993;570;6000;-84
2021/12/13 09:01:08;;;;;;;4.80;3.70;;;;;;;11.29;59.16;101380.69;144993;569;6002;-85
2021/12/13 09:03:50;;;;;;;3.75;2.30;;;;;;;11.28;58.44;101378.91;144998;564;6002;-85
2021/12/13 09:06:36;;;;;;;3.97;3.10;;;;;;;11.25;57.65;101383.16;144993;616;6002;-86
2021/12/13 09:09:28;;;;;;;4.47;3.30;;;;;;;11.18;57.56;101382.87;144993;635;6004;-86
2021/12/13 09:12:08;;;;;;;5.10;3.83;;;;;;;11.23;57.78;101379.63;144993;624;6000;-85
2021/12/13 09:14:51;;;;;;;8.25;3.60;;;;;;;11.22;57.83;101375.25;144993;680;6002;-85
2021/12/13 09:17:31;;;;;;;7.40;4.75;;;;;;;10.93;58.42;101381.03;144993;661;6000;-86
2021/12/13 09:20:18;;;;;;;7.85;4.60;;;;;;;10.73;58.23;101381.16;144993;591;6011;-85
2021/12/13 09:22:54;;;;;;;6.53;4.90;;;;;;;10.53;57.71;101381.25;144993;584;6002;-83
2021/12/13 09:25:39;;;;;;;6.60;4.62;;;;;;;10.34;57.89;101369.22;144993;577;6002;-83
2021/12/13 09:28:31;;;;;;;7.20;4.80;;;;;;;10.40;57.73;101376.34;144993;591;6002;-85
2021/12/13 09:31:11;;;;;;;5.50;3.95;;;;;;;10.96;57.57;101361.28;144992;569;6002;-83
2021/12/13 09:33:42;;;;;;;4.45;3.25;;;;;;;11.28;57.27;101366.81;144992;563;6002;-85
2021/12/13 09:36:33;;;;;;;4.00;2.00;;;;;;;11.69;54.64;101363.91;144992;647;6002;-84
2021/12/13 09:39:27;;;;;;;3.03;1.90;;;;;;;12.04;53.03;101353.88;144992;602;6002;-86
2021/12/13 09:42:01;;;;;;;4.18;2.05;;;;;;;12.51;53.83;101351.97;144992;587;6000;-86
2021/12/13 09:45:01;;;;;;;3.35;1.73;;;;;;;13.25;53.89;101348.97;144992;600;6000;-85
2021/12/13 09:47:38;;;;;;;2.83;1.42;;;;;;;13.77;51.47;101347.84;144993;619;6002;-86
2021/12/13 09:50:19;;;;;;;1.77;1.33;;;;;;;14.07;50.55;101348.63;144993;593;6002;-85
2021/12/13 09:52:57;;;;;;;3.58;1.20;;;;;;;14.22;47.37;101342.91;144993;619;6002;-86
2021/12/13 09:55:34;;;;;;;4.47;2.40;;;;;;;14.07;46.80;101343.41;144992;591;6002;-84
2021/12/13 09:58:10;;;;;;;4.22;1.98;;;;;;;14.12;47.06;101345.28;144993;715;6002;-83
2021/12/13 10:01:12;;;;;;;2.10;1.52;;;;;;;14.25;45.68;101338.66;144993;645;6002;-86
2021/12/13 10:04:13;;;;;;;3.75;1.62;;;;;;;14.11;46.39;101343.53;144993;590;6000;-85
2021/12/13 10:06:53;;;;;;;2.10;1.20;;;;;;;13.22;46.85;101355.00;144993;912;6000;-86
2021/12/13 10:09:39;;;;;;;2.80;1.20;;;;;;;13.14;47.76;101347.78;144993;574;6002;-85
2021/12/13 10:12:15;;;;;;;1.77;0.88;;;;;;;12.97;48.59;101344.69;144993;569;6002;-84
2021/12/13 10:14:55;;;;;;;3.17;1.45;;;;;;;12.57;49.81;101356.50;144993;591;6002;-85
2021/12/13 10:17:25;;;;;;;2.15;1.30;;;;;;;12.74;51.12;101354.41;144993;571;6002;-84
2021/12/13 10:19:55;;;;;;;1.98;1.40;;;;;;;12.23;50.75;101358.00;144993;611;6002;-84
2021/12/13 10:22:28;;;;;;;5.37;1.55;;;;;;;12.32;50.74;101360.91;144993;611;6002;-84
2021/12/13 10:25:03;;;;;;;2.92;1.58;;;;;;;12.19;51.36;101371.75;144993;577;6002;-84
2021/12/13 10:27:31;;;;;;;2.30;1.40;;;;;;;12.08;51.21;101367.06;144993;594;6002;-84
2021/12/13 10:30:12;;;;;;;3.75;1.70;;;;;;;12.36;51.96;101362.78;144993;639;6002;-86
2021/12/13 10:32:41;;;;;;;3.87;1.55;;;;;;;12.60;48.95;101367.91;144993;582;6002;-84
2021/12/13 10:35:21;;;;;;;3.00;1.60;;;;;;;12.69;51.49;101359.47;144993;657;6002;-83
2021/12/13 10:37:52;;;;;;;2.75;1.15;;;;;;;12.49;46.36;101364.06;144993;566;6002;-85
2021/12/13 10:40:44;;;;;;;2.70;1.00;;;;;;;12.26;49.70;101358.09;144994;569;5002;-84
2021/12/13 10:43:23;;;;;;;2.95;1.30;;;;;;;12.26;48.00;101351.16;144994;584;5004;-84
2021/12/13 10:46:07;;;;;;;2.10;1.35;;;;;;;12.24;47.19;101349.38;144994;613;5004;-83
2021/12/13 10:48:42;;;;;;;2.90;1.12;;;;;;;12.15;46.86;101344.72;144994;584;5004;-83
2021/12/13 10:51:25;;;;;;;3.75;1.12;;;;;;;12.40;46.39;101337.72;144994;590;5004;-82
2021/12/13 10:53:53;;;;;;;2.60;1.35;;;;;;;12.50;45.32;101342.37;144994;587;5004;-85
2021/12/13 10:56:29;;;;;;;2.42;1.20;;;;;;;12.89;43.99;101329.72;144994;585;5004;-85
2021/12/13 10:59:00;;;;;;;2.67;1.70;;;;;;;13.42;44.41;101328.63;144994;579;5004;-84
2021/12/13 11:01:44;;;;;;;3.03;2.00;;;;;;;13.95;45.32;101325.69;144994;565;5004;-84
2021/12/13 11:04:33;;;;;;;3.72;2.50;;;;;;;14.49;45.97;101320.06;144994;627;5004;-86
2021/12/13 11:07:06;;;;;;;3.03;2.25;;;;;;;14.90;43.69;101318.37;144993;562;5004;-87
2021/12/13 11:09:37;;;;;;;2.10;1.70;;;;;;;15.02;42.88;101318.66;144994;570;5002;-86
2021/12/13 11:12:20;;;;;;;2.15;1.40;;;;;;;15.19;42.52;101314.66;144994;647;5002;-86
2021/12/13 11:14:50;;;;;;;3.17;2.10;;;;;;;15.11;45.81;101329.31;144994;564;5002;-82
2021/12/13 11:17:21;;;;;;;3.60;2.30;;;;;;;14.83;44.30;101323.47;144994;628;5002;-86
2021/12/13 11:19:52;;;;;;;3.15;1.80;;;;;;;14.38;44.50;101313.72;144994;599;5002;-88
2021/12/13 11:22:29;;;;;;;2.35;1.40;;;;;;;13.95;45.40;101318.75;144994;586;5002;-87
2021/12/13 11:25:00;;;;;;;3.58;1.20;;;;;;;14.09;43.92;101315.59;144994;578;5002;-85
2021/12/13 11:27:31;;;;;;;2.78;1.35;;;;;;;14.04;44.44;101302.44;144994;608;5002;-85
2021/12/13 11:30:00;;;;;;;2.37;1.40;;;;;;;14.01;43.54;101306.69;144994;623;5002;-85
2021/12/13 11:33:22;;;;;;;1.50;1.10;;;;;;;14.04;45.67;101296.34;144994;571;5002;-86
2021/12/13 11:36:49;;;;;;;1.70;1.12;;;;;;;14.05;43.25;101287.69;144994;564;5002;-85
2021/12/13 11:39:26;;;;;;;;;;;;;;;14.37;43.52;101287.56;144998;914;5004;-86
2021/12/13 11:42:36;;;;;;;1.10;1.00;;;;;;;14.26;43.20;101282.94;144998;596;5000;-86
2021/12/13 11:45:43;;;;;;;1.25;1.00;;;;;;;14.11;43.22;101286.09;144994;593;5004;-86
2021/12/13 11:48:40;;;;;;;1.70;1.20;;;;;;;14.48;45.16;101279.12;144994;603;5004;-85
2021/12/13 11:51:41;;;;;;;1.90;1.35;;;;;;;14.45;43.22;101276.44;144994;567;5002;-86
2021/12/13 11:54:45;;;;;;;1.92;1.35;;;;;;;14.15;42.49;101282.69;144994;591;5004;-85
2021/12/13 11:58:00;;;;;;;1.77;1.20;;;;;;;13.85;43.64;101284.56;144994;561;5004;-84
2021/12/13 12:01:00;;;;;;;3.30;1.50;;;;;;;14.28;45.33;101283.00;144994;736;5002;-85
2021/12/13 12:04:13;;;;;;;2.60;1.60;;;;;;;14.48;42.97;101286.06;144994;563;5004;-85
2021/12/13 12:07:26;;;;;;;2.72;1.50;;;;;;;14.49;43.01;101282.59;144994;609;5004;-86
2021/12/13 12:10:26;;;;;;;1.50;1.40;;;;;;;14.31;42.99;101270.87;144994;560;5002;-86
2021/12/13 12:13:30;;;;;;;1.73;1.45;;;;;;;14.66;44.83;101275.19;144994;700;5005;-85
2021/12/13 12:16:02;;;;;;;1.80;1.58;;;;;;;14.51;42.81;101268.72;144994;580;5002;-84
2021/12/13 12:18:35;;;;;;;1.50;1.40;;;;;;;14.84;44.68;101277.28;144994;581;5002;-84
2021/12/13 12:21:51;;;;;;;1.40;1.20;;;;;;;15.11;44.13;101277.00;144994;574;5002;-87
2021/12/13 12:24:34;;;;;;;1.27;1.17;;;;;;;14.64;42.88;101282.13;144994;582;5002;-85
2021/12/13 12:27:08;;;;;;;2.47;1.45;;;;;;;14.67;43.11;101275.22;144994;584;5002;-85
2021/12/13 12:29:39;;;;;;;7.82;1.98;;;;;;;14.73;44.82;101279.69;144994;668;5002;-85
2021/12/13 12:32:11;;;;;;;2.35;1.60;;;;;;;15.02;44.33;101277.69;144994;570;5002;-86
2021/12/13 12:35:15;;;;;;;1.15;1.02;;;;;;;14.93;44.52;101282.72;144994;606;5002;-83
2021/12/13 12:38:19;;;;;;;2.08;1.48;;;;;;;15.29;44.15;101281.72;144994;636;5004;-85
2021/12/13 12:41:52;;;;;;;1.50;1.40;;;;;;;15.33;43.60;101283.50;144994;603;5004;-84